GATCU EGHQ-EGHH
Flight info
| Callsign | GATCU |
|---|---|
| Flight time | 1h 19m |
| Altitude | 2500 |
| Route | VFR VIA EGHD |
| Aircraft | DR40/L-V/N |
Departure
| Time | 2026-05-05 18:04 |
|---|---|
| Airport | Cornwall Airport Newquay (EGHQ) |
Arrival
| Time | 2026-05-05 19:24 |
|---|---|
| Airport | Bournemouth Airport (EGHH) |
| Time | Latitude | Longitude | Altitude | Speed | Heading |
|---|---|---|---|---|---|
| 2026-05-05 17:31 | 50.43744 | -4.99621 | 348 ft | 0 kts | 247° |
| 2026-05-05 17:54 | 50.43743 | -4.99624 | 348 ft | 1 kts | 231° |
| 2026-05-05 17:54 | 50.43733 | -4.99629 | 348 ft | 1 kts | 179° |
| 2026-05-05 17:54 | 50.43727 | -4.99625 | 348 ft | 1 kts | 141° |
| 2026-05-05 17:54 | 50.43719 | -4.99610 | 348 ft | 2 kts | 110° |
| 2026-05-05 17:55 | 50.43724 | -4.99587 | 349 ft | 2 kts | 47° |
| 2026-05-05 17:55 | 50.43735 | -4.99572 | 350 ft | 2 kts | 34° |
| 2026-05-05 17:55 | 50.43756 | -4.99553 | 350 ft | 4 kts | 33° |
| 2026-05-05 17:55 | 50.43789 | -4.99524 | 351 ft | 6 kts | 12° |
| 2026-05-05 17:56 | 50.43848 | -4.99519 | 350 ft | 9 kts | 359° |
| 2026-05-05 17:56 | 50.43911 | -4.99516 | 350 ft | 6 kts | 1° |
| 2026-05-05 17:56 | 50.43937 | -4.99516 | 350 ft | 0 kts | 0° |
| 2026-05-05 18:01 | 50.43940 | -4.99516 | 350 ft | 2 kts | 1° |
| 2026-05-05 18:01 | 50.44013 | -4.99505 | 350 ft | 11 kts | 6° |
| 2026-05-05 18:01 | 50.44067 | -4.99518 | 349 ft | 7 kts | 312° |
| 2026-05-05 18:01 | 50.44084 | -4.99556 | 349 ft | 0 kts | 299° |
| 2026-05-05 18:03 | 50.44085 | -4.99557 | 349 ft | 1 kts | 299° |
| 2026-05-05 18:03 | 50.44165 | -4.99774 | 343 ft | 53 kts | 300° |
| 2026-05-05 18:03 | 50.44423 | -5.00453 | 421 ft | 81 kts | 300° |
| 2026-05-05 18:04 | 50.44701 | -5.01246 | 604 ft | 85 kts | 301° |
| 2026-05-05 18:04 | 50.45003 | -5.02138 | 741 ft | 97 kts | 301° |
| 2026-05-05 18:04 | 50.45303 | -5.03090 | 946 ft | 97 kts | 300° |
| 2026-05-05 18:04 | 50.45683 | -5.03998 | 1076 ft | 100 kts | 329° |
| 2026-05-05 18:05 | 50.46352 | -5.03905 | 1087 ft | 104 kts | 50° |
| 2026-05-05 18:05 | 50.46446 | -5.02868 | 1373 ft | 94 kts | 89° |
| 2026-05-05 18:05 | 50.46377 | -5.01828 | 1487 ft | 100 kts | 92° |
| 2026-05-05 18:05 | 50.46247 | -5.00750 | 1645 ft | 100 kts | 96° |
| 2026-05-05 18:06 | 50.46093 | -4.99716 | 1855 ft | 97 kts | 97° |
| 2026-05-05 18:06 | 50.45988 | -4.99021 | 1976 ft | 97 kts | 97° |
| 2026-05-05 18:06 | 50.45703 | -4.97636 | 2138 ft | 103 kts | 101° |
| 2026-05-05 18:06 | 50.45530 | -4.96561 | 2202 ft | 101 kts | 94° |
| 2026-05-05 18:07 | 50.45351 | -4.95444 | 2111 ft | 113 kts | 100° |
| 2026-05-05 18:07 | 50.45095 | -4.94291 | 2149 ft | 109 kts | 103° |
| 2026-05-05 18:07 | 50.44893 | -4.93141 | 2145 ft | 108 kts | 91° |
| 2026-05-05 18:07 | 50.44784 | -4.91955 | 2103 ft | 113 kts | 96° |
| 2026-05-05 18:08 | 50.44668 | -4.90755 | 2111 ft | 108 kts | 86° |
| 2026-05-05 18:08 | 50.44631 | -4.89565 | 2015 ft | 110 kts | 90° |
| 2026-05-05 18:08 | 50.44546 | -4.88414 | 1984 ft | 104 kts | 92° |
| 2026-05-05 18:08 | 50.44453 | -4.87313 | 1996 ft | 98 kts | 91° |
| 2026-05-05 18:09 | 50.44388 | -4.86266 | 1990 ft | 95 kts | 83° |
| 2026-05-05 18:09 | 50.44293 | -4.85239 | 1995 ft | 94 kts | 90° |
| 2026-05-05 18:09 | 50.44179 | -4.84228 | 1995 ft | 94 kts | 92° |
| 2026-05-05 18:09 | 50.44079 | -4.83210 | 1993 ft | 94 kts | 90° |
| 2026-05-05 18:10 | 50.43984 | -4.82184 | 1995 ft | 95 kts | 90° |
| 2026-05-05 18:10 | 50.43888 | -4.81135 | 2001 ft | 99 kts | 90° |
| 2026-05-05 18:10 | 50.43794 | -4.80054 | 2002 ft | 101 kts | 90° |
| 2026-05-05 18:10 | 50.43699 | -4.78950 | 1995 ft | 102 kts | 90° |
| 2026-05-05 18:11 | 50.43603 | -4.77832 | 1995 ft | 103 kts | 90° |
| 2026-05-05 18:11 | 50.43507 | -4.76714 | 2002 ft | 104 kts | 90° |
| 2026-05-05 18:11 | 50.43411 | -4.75579 | 1997 ft | 105 kts | 90° |
| 2026-05-05 18:11 | 50.43314 | -4.74432 | 2009 ft | 104 kts | 90° |
| 2026-05-05 18:12 | 50.43218 | -4.73371 | 2165 ft | 93 kts | 89° |
| 2026-05-05 18:12 | 50.43119 | -4.72406 | 2318 ft | 86 kts | 89° |
| 2026-05-05 18:12 | 50.43018 | -4.71504 | 2471 ft | 83 kts | 89° |
| 2026-05-05 18:12 | 50.42916 | -4.70582 | 2519 ft | 91 kts | 90° |
| 2026-05-05 18:13 | 50.42810 | -4.69538 | 2530 ft | 99 kts | 90° |
| 2026-05-05 18:13 | 50.42707 | -4.68422 | 2527 ft | 104 kts | 90° |
| 2026-05-05 18:13 | 50.42624 | -4.67276 | 2521 ft | 105 kts | 85° |
| 2026-05-05 18:13 | 50.42586 | -4.66135 | 2509 ft | 106 kts | 85° |
| 2026-05-05 18:14 | 50.42549 | -4.64973 | 2509 ft | 105 kts | 85° |
| 2026-05-05 18:14 | 50.42515 | -4.63826 | 2516 ft | 105 kts | 85° |
| 2026-05-05 18:14 | 50.42482 | -4.62686 | 2515 ft | 106 kts | 85° |
| 2026-05-05 18:14 | 50.42447 | -4.61527 | 2514 ft | 105 kts | 85° |
| 2026-05-05 18:15 | 50.42415 | -4.60382 | 2515 ft | 106 kts | 85° |
| 2026-05-05 18:15 | 50.42381 | -4.59225 | 2513 ft | 106 kts | 85° |
| 2026-05-05 18:15 | 50.42347 | -4.58065 | 2505 ft | 106 kts | 85° |
| 2026-05-05 18:15 | 50.42313 | -4.56917 | 2507 ft | 105 kts | 85° |
| 2026-05-05 18:16 | 50.42278 | -4.55785 | 2514 ft | 105 kts | 85° |
| 2026-05-05 18:16 | 50.42244 | -4.54630 | 2515 ft | 106 kts | 85° |
| 2026-05-05 18:16 | 50.42209 | -4.53472 | 2514 ft | 106 kts | 85° |
| 2026-05-05 18:16 | 50.42173 | -4.52322 | 2508 ft | 106 kts | 85° |
| 2026-05-05 18:17 | 50.42140 | -4.51170 | 2513 ft | 106 kts | 85° |
| 2026-05-05 18:17 | 50.42106 | -4.50014 | 2511 ft | 106 kts | 85° |
| 2026-05-05 18:17 | 50.42070 | -4.48864 | 2511 ft | 106 kts | 85° |
| 2026-05-05 18:17 | 50.42037 | -4.47722 | 2513 ft | 106 kts | 85° |
| 2026-05-05 18:18 | 50.42003 | -4.46564 | 2517 ft | 106 kts | 85° |
| 2026-05-05 18:18 | 50.41968 | -4.45395 | 2507 ft | 106 kts | 85° |
| 2026-05-05 18:18 | 50.41933 | -4.44245 | 2510 ft | 105 kts | 85° |
| 2026-05-05 18:18 | 50.41899 | -4.43104 | 2508 ft | 105 kts | 85° |
| 2026-05-05 18:19 | 50.41863 | -4.41953 | 2512 ft | 105 kts | 85° |
| 2026-05-05 18:19 | 50.41827 | -4.40804 | 2516 ft | 105 kts | 85° |
| 2026-05-05 18:19 | 50.41792 | -4.39647 | 2516 ft | 106 kts | 85° |
| 2026-05-05 18:19 | 50.41758 | -4.38503 | 2509 ft | 106 kts | 85° |
| 2026-05-05 18:20 | 50.41723 | -4.37335 | 2511 ft | 105 kts | 85° |
| 2026-05-05 18:20 | 50.41688 | -4.36188 | 2513 ft | 105 kts | 85° |
| 2026-05-05 18:20 | 50.41651 | -4.35041 | 2516 ft | 106 kts | 85° |
| 2026-05-05 18:20 | 50.41614 | -4.33873 | 2516 ft | 106 kts | 86° |
| 2026-05-05 18:21 | 50.41577 | -4.32707 | 2513 ft | 106 kts | 85° |
| 2026-05-05 18:21 | 50.41542 | -4.31550 | 2513 ft | 106 kts | 85° |
| 2026-05-05 18:21 | 50.41505 | -4.30379 | 2511 ft | 106 kts | 86° |
| 2026-05-05 18:21 | 50.41470 | -4.29232 | 2515 ft | 105 kts | 85° |
| 2026-05-05 18:22 | 50.41434 | -4.28059 | 2517 ft | 105 kts | 86° |
| 2026-05-05 18:22 | 50.41398 | -4.26899 | 2516 ft | 106 kts | 85° |
| 2026-05-05 18:22 | 50.41360 | -4.25730 | 2518 ft | 106 kts | 85° |
| 2026-05-05 18:22 | 50.41325 | -4.24579 | 2519 ft | 106 kts | 85° |
| 2026-05-05 18:23 | 50.41289 | -4.23406 | 2515 ft | 106 kts | 85° |
| 2026-05-05 18:23 | 50.41252 | -4.22260 | 2516 ft | 106 kts | 86° |
| 2026-05-05 18:23 | 50.41215 | -4.21087 | 2520 ft | 106 kts | 86° |
| 2026-05-05 18:23 | 50.41181 | -4.19932 | 2515 ft | 106 kts | 85° |
| 2026-05-05 18:24 | 50.41145 | -4.18767 | 2518 ft | 106 kts | 86° |
| 2026-05-05 18:24 | 50.41111 | -4.17622 | 2516 ft | 106 kts | 85° |
| 2026-05-05 18:24 | 50.41076 | -4.16456 | 2516 ft | 106 kts | 85° |
| 2026-05-05 18:24 | 50.41040 | -4.15298 | 2513 ft | 106 kts | 86° |
| 2026-05-05 18:25 | 50.41005 | -4.14141 | 2512 ft | 106 kts | 86° |
| 2026-05-05 18:25 | 50.40982 | -4.13361 | 2510 ft | 106 kts | 85° |
| 2026-05-05 18:25 | 50.41075 | -4.11863 | 2507 ft | 103 kts | 75° |
| 2026-05-05 18:25 | 50.41186 | -4.10757 | 2514 ft | 103 kts | 75° |
| 2026-05-05 18:26 | 50.41297 | -4.09647 | 2505 ft | 103 kts | 75° |
| 2026-05-05 18:26 | 50.41477 | -4.08575 | 2500 ft | 99 kts | 54° |
| 2026-05-05 18:26 | 50.41895 | -4.07743 | 2512 ft | 98 kts | 46° |
| 2026-05-05 18:26 | 50.42344 | -4.06935 | 2509 ft | 98 kts | 46° |
| 2026-05-05 18:27 | 50.42798 | -4.06129 | 2508 ft | 98 kts | 46° |
| 2026-05-05 18:27 | 50.43246 | -4.05329 | 2510 ft | 98 kts | 46° |
| 2026-05-05 18:27 | 50.43703 | -4.04513 | 2504 ft | 98 kts | 45° |
| 2026-05-05 18:27 | 50.44154 | -4.03707 | 2499 ft | 98 kts | 46° |
| 2026-05-05 18:28 | 50.45048 | -4.02107 | 2510 ft | 97 kts | 45° |
| 2026-05-05 18:28 | 50.45495 | -4.01305 | 2506 ft | 98 kts | 46° |
| 2026-05-05 18:28 | 50.45943 | -4.00501 | 2498 ft | 98 kts | 46° |
| 2026-05-05 18:29 | 50.46396 | -3.99690 | 2500 ft | 97 kts | 46° |
| 2026-05-05 18:29 | 50.46845 | -3.98887 | 2503 ft | 97 kts | 45° |
| 2026-05-05 18:29 | 50.47295 | -3.98080 | 2506 ft | 98 kts | 46° |
| 2026-05-05 18:29 | 50.47746 | -3.97277 | 2505 ft | 98 kts | 45° |
| 2026-05-05 18:30 | 50.48200 | -3.96464 | 2512 ft | 98 kts | 46° |
| 2026-05-05 18:30 | 50.48651 | -3.95655 | 2503 ft | 99 kts | 46° |
| 2026-05-05 18:30 | 50.49102 | -3.94850 | 2500 ft | 98 kts | 46° |
| 2026-05-05 18:30 | 50.49557 | -3.94037 | 2505 ft | 98 kts | 46° |
| 2026-05-05 18:31 | 50.50008 | -3.93230 | 2505 ft | 98 kts | 45° |
| 2026-05-05 18:31 | 50.50460 | -3.92422 | 2505 ft | 98 kts | 46° |
| 2026-05-05 18:31 | 50.50908 | -3.91621 | 2506 ft | 98 kts | 46° |
| 2026-05-05 18:31 | 50.51361 | -3.90809 | 2506 ft | 98 kts | 45° |
| 2026-05-05 18:32 | 50.51797 | -3.90027 | 2591 ft | 93 kts | 45° |
| 2026-05-05 18:32 | 50.52220 | -3.89258 | 2691 ft | 90 kts | 46° |
| 2026-05-05 18:32 | 50.52628 | -3.88512 | 2765 ft | 89 kts | 45° |
| 2026-05-05 18:32 | 50.53032 | -3.87771 | 2838 ft | 90 kts | 45° |
| 2026-05-05 18:33 | 50.53437 | -3.87024 | 2928 ft | 90 kts | 45° |
| 2026-05-05 18:33 | 50.53843 | -3.86278 | 2974 ft | 89 kts | 45° |
| 2026-05-05 18:33 | 50.54243 | -3.85537 | 3025 ft | 89 kts | 45° |
| 2026-05-05 18:33 | 50.54645 | -3.84789 | 3089 ft | 89 kts | 45° |
| 2026-05-05 18:34 | 50.55049 | -3.84034 | 3158 ft | 89 kts | 45° |
| 2026-05-05 18:34 | 50.55453 | -3.83283 | 3219 ft | 89 kts | 45° |
| 2026-05-05 18:34 | 50.55853 | -3.82535 | 3273 ft | 90 kts | 46° |
| 2026-05-05 18:34 | 50.56259 | -3.81772 | 3334 ft | 90 kts | 45° |
| 2026-05-05 18:35 | 50.56660 | -3.81018 | 3393 ft | 90 kts | 45° |
| 2026-05-05 18:35 | 50.57060 | -3.80262 | 3451 ft | 90 kts | 45° |
| 2026-05-05 18:35 | 50.57466 | -3.79500 | 3500 ft | 90 kts | 45° |
| 2026-05-05 18:35 | 50.57871 | -3.78740 | 3555 ft | 90 kts | 45° |
| 2026-05-05 18:36 | 50.58278 | -3.77979 | 3615 ft | 91 kts | 45° |
| 2026-05-05 18:36 | 50.58685 | -3.77219 | 3674 ft | 91 kts | 45° |
| 2026-05-05 18:36 | 50.59095 | -3.76451 | 3736 ft | 91 kts | 46° |
| 2026-05-05 18:36 | 50.59502 | -3.75688 | 3790 ft | 91 kts | 45° |
| 2026-05-05 18:37 | 50.59914 | -3.74916 | 3849 ft | 92 kts | 45° |
| 2026-05-05 18:37 | 50.60327 | -3.74143 | 3918 ft | 92 kts | 45° |
| 2026-05-05 18:37 | 50.60741 | -3.73367 | 3974 ft | 92 kts | 45° |
| 2026-05-05 18:37 | 50.61158 | -3.72591 | 4010 ft | 94 kts | 45° |
| 2026-05-05 18:38 | 50.61589 | -3.71789 | 4014 ft | 97 kts | 45° |
| 2026-05-05 18:38 | 50.62036 | -3.70962 | 4013 ft | 99 kts | 45° |
| 2026-05-05 18:38 | 50.62347 | -3.69987 | 4013 ft | 103 kts | 66° |
| 2026-05-05 18:38 | 50.62558 | -3.68890 | 4012 ft | 104 kts | 68° |
| 2026-05-05 18:39 | 50.62758 | -3.67807 | 4012 ft | 104 kts | 68° |
| 2026-05-05 18:39 | 50.62961 | -3.66706 | 4012 ft | 104 kts | 68° |
| 2026-05-05 18:39 | 50.63165 | -3.65602 | 4012 ft | 104 kts | 68° |
| 2026-05-05 18:39 | 50.63368 | -3.64509 | 4013 ft | 104 kts | 68° |
| 2026-05-05 18:40 | 50.63571 | -3.63407 | 4013 ft | 104 kts | 68° |
| 2026-05-05 18:40 | 50.63775 | -3.62305 | 4013 ft | 104 kts | 68° |
| 2026-05-05 18:40 | 50.63974 | -3.61223 | 4013 ft | 104 kts | 68° |
| 2026-05-05 18:40 | 50.64179 | -3.60116 | 4013 ft | 104 kts | 68° |
| 2026-05-05 18:41 | 50.64381 | -3.59020 | 4013 ft | 104 kts | 68° |
| 2026-05-05 18:41 | 50.64584 | -3.57927 | 4013 ft | 104 kts | 68° |
| 2026-05-05 18:41 | 50.64786 | -3.56823 | 4013 ft | 104 kts | 68° |
| 2026-05-05 18:41 | 50.64991 | -3.55716 | 4014 ft | 104 kts | 67° |
| 2026-05-05 18:42 | 50.65192 | -3.54624 | 4014 ft | 104 kts | 67° |
| 2026-05-05 18:42 | 50.65395 | -3.53517 | 4014 ft | 104 kts | 68° |
| 2026-05-05 18:42 | 50.65596 | -3.52419 | 4014 ft | 104 kts | 68° |
| 2026-05-05 18:42 | 50.65797 | -3.51319 | 4014 ft | 104 kts | 68° |
| 2026-05-05 18:43 | 50.66001 | -3.50219 | 4014 ft | 104 kts | 68° |
| 2026-05-05 18:43 | 50.66204 | -3.49117 | 4014 ft | 104 kts | 68° |
| 2026-05-05 18:43 | 50.66409 | -3.48008 | 4014 ft | 104 kts | 68° |
| 2026-05-05 18:43 | 50.66611 | -3.46911 | 4014 ft | 104 kts | 68° |
| 2026-05-05 18:44 | 50.66814 | -3.45806 | 4013 ft | 104 kts | 68° |
| 2026-05-05 18:44 | 50.67017 | -3.44715 | 4013 ft | 104 kts | 67° |
| 2026-05-05 18:44 | 50.67219 | -3.43616 | 4013 ft | 104 kts | 68° |
| 2026-05-05 18:44 | 50.67421 | -3.42512 | 4013 ft | 104 kts | 68° |
| 2026-05-05 18:45 | 50.67627 | -3.41401 | 4013 ft | 104 kts | 67° |
| 2026-05-05 18:45 | 50.67829 | -3.40304 | 4013 ft | 104 kts | 68° |
| 2026-05-05 18:45 | 50.68031 | -3.39207 | 4012 ft | 104 kts | 68° |
| 2026-05-05 18:45 | 50.68235 | -3.38106 | 4012 ft | 104 kts | 68° |
| 2026-05-05 18:46 | 50.68437 | -3.37003 | 4012 ft | 104 kts | 67° |
| 2026-05-05 18:46 | 50.68639 | -3.35899 | 4012 ft | 104 kts | 68° |
| 2026-05-05 18:46 | 50.68839 | -3.34808 | 4012 ft | 104 kts | 68° |
| 2026-05-05 18:46 | 50.69040 | -3.33703 | 4012 ft | 104 kts | 68° |
| 2026-05-05 18:47 | 50.69243 | -3.32590 | 4012 ft | 104 kts | 68° |
| 2026-05-05 18:47 | 50.69444 | -3.31485 | 4012 ft | 105 kts | 68° |
| 2026-05-05 18:47 | 50.69645 | -3.30391 | 4012 ft | 105 kts | 68° |
| 2026-05-05 18:47 | 50.69847 | -3.29286 | 4011 ft | 105 kts | 68° |
| 2026-05-05 18:48 | 50.70050 | -3.28173 | 4011 ft | 105 kts | 68° |
| 2026-05-05 18:48 | 50.70249 | -3.27076 | 4011 ft | 105 kts | 68° |
| 2026-05-05 18:48 | 50.70450 | -3.25969 | 4011 ft | 105 kts | 68° |
| 2026-05-05 18:48 | 50.70651 | -3.24867 | 4011 ft | 105 kts | 68° |
| 2026-05-05 18:49 | 50.70854 | -3.23756 | 4010 ft | 105 kts | 68° |
| 2026-05-05 18:49 | 50.71055 | -3.22657 | 4008 ft | 105 kts | 68° |
| 2026-05-05 18:49 | 50.71257 | -3.21538 | 3886 ft | 104 kts | 69° |
| 2026-05-05 18:49 | 50.71452 | -3.20460 | 3757 ft | 102 kts | 68° |
| 2026-05-05 18:50 | 50.71646 | -3.19380 | 3627 ft | 101 kts | 69° |
| 2026-05-05 18:50 | 50.71702 | -3.18270 | 3501 ft | 103 kts | 83° |
| 2026-05-05 18:50 | 50.71701 | -3.17128 | 3370 ft | 103 kts | 83° |
| 2026-05-05 18:50 | 50.71693 | -3.16003 | 3242 ft | 103 kts | 83° |
| 2026-05-05 18:51 | 50.71684 | -3.14870 | 3111 ft | 102 kts | 83° |
| 2026-05-05 18:51 | 50.71677 | -3.13758 | 3019 ft | 100 kts | 83° |
| 2026-05-05 18:51 | 50.71671 | -3.12667 | 3018 ft | 101 kts | 83° |
| 2026-05-05 18:51 | 50.71664 | -3.11531 | 3013 ft | 104 kts | 83° |
| 2026-05-05 18:52 | 50.71659 | -3.10376 | 3011 ft | 105 kts | 83° |
| 2026-05-05 18:52 | 50.71655 | -3.09221 | 3010 ft | 106 kts | 83° |
| 2026-05-05 18:52 | 50.71649 | -3.08065 | 3012 ft | 106 kts | 83° |
| 2026-05-05 18:52 | 50.71646 | -3.06895 | 3011 ft | 106 kts | 83° |
| 2026-05-05 18:53 | 50.71642 | -3.05726 | 3011 ft | 106 kts | 83° |
| 2026-05-05 18:53 | 50.71636 | -3.04569 | 3008 ft | 106 kts | 83° |
| 2026-05-05 18:53 | 50.71632 | -3.03398 | 3008 ft | 106 kts | 83° |
| 2026-05-05 18:53 | 50.71625 | -3.02244 | 3010 ft | 106 kts | 83° |
| 2026-05-05 18:54 | 50.71619 | -3.01081 | 3009 ft | 106 kts | 83° |
| 2026-05-05 18:54 | 50.71614 | -2.99921 | 3009 ft | 106 kts | 83° |
| 2026-05-05 18:54 | 50.71610 | -2.98754 | 3009 ft | 106 kts | 83° |
| 2026-05-05 18:54 | 50.71605 | -2.97582 | 3011 ft | 106 kts | 83° |
| 2026-05-05 18:55 | 50.71599 | -2.96416 | 3008 ft | 106 kts | 83° |
| 2026-05-05 18:55 | 50.71593 | -2.95269 | 3008 ft | 106 kts | 83° |
| 2026-05-05 18:55 | 50.71587 | -2.94104 | 3011 ft | 106 kts | 83° |
| 2026-05-05 18:55 | 50.71582 | -2.92937 | 3012 ft | 106 kts | 83° |
| 2026-05-05 18:56 | 50.71576 | -2.91782 | 3012 ft | 106 kts | 83° |
| 2026-05-05 18:56 | 50.71572 | -2.90624 | 3012 ft | 106 kts | 83° |
| 2026-05-05 18:56 | 50.71567 | -2.89452 | 3011 ft | 106 kts | 83° |
| 2026-05-05 18:56 | 50.71553 | -2.88277 | 3011 ft | 108 kts | 89° |
| 2026-05-05 18:57 | 50.71385 | -2.87118 | 3012 ft | 109 kts | 96° |
| 2026-05-05 18:57 | 50.71191 | -2.85963 | 3013 ft | 110 kts | 97° |
| 2026-05-05 18:57 | 50.70994 | -2.84795 | 3013 ft | 110 kts | 97° |
| 2026-05-05 18:57 | 50.70795 | -2.83625 | 3014 ft | 110 kts | 97° |
| 2026-05-05 18:58 | 50.70598 | -2.82465 | 3014 ft | 110 kts | 97° |
| 2026-05-05 18:58 | 50.70398 | -2.81293 | 3013 ft | 110 kts | 97° |
| 2026-05-05 18:58 | 50.70201 | -2.80124 | 3012 ft | 110 kts | 97° |
| 2026-05-05 18:58 | 50.70005 | -2.78967 | 3015 ft | 110 kts | 97° |
| 2026-05-05 18:59 | 50.69808 | -2.77805 | 3014 ft | 110 kts | 97° |
| 2026-05-05 18:59 | 50.69609 | -2.76625 | 3014 ft | 110 kts | 97° |
| 2026-05-05 18:59 | 50.69413 | -2.75466 | 3015 ft | 110 kts | 97° |
| 2026-05-05 18:59 | 50.69216 | -2.74307 | 3014 ft | 110 kts | 97° |
| 2026-05-05 19:00 | 50.69021 | -2.73137 | 3015 ft | 110 kts | 97° |
| 2026-05-05 19:00 | 50.68821 | -2.71982 | 3014 ft | 110 kts | 97° |
| 2026-05-05 19:00 | 50.68619 | -2.70808 | 3022 ft | 109 kts | 97° |
| 2026-05-05 19:00 | 50.68423 | -2.69666 | 3056 ft | 107 kts | 97° |
| 2026-05-05 19:01 | 50.68227 | -2.68531 | 3060 ft | 108 kts | 97° |
| 2026-05-05 19:01 | 50.68029 | -2.67376 | 3060 ft | 109 kts | 97° |
| 2026-05-05 19:01 | 50.67830 | -2.66214 | 3058 ft | 109 kts | 97° |
| 2026-05-05 19:01 | 50.67635 | -2.65065 | 3056 ft | 109 kts | 97° |
| 2026-05-05 19:02 | 50.67436 | -2.63897 | 3054 ft | 109 kts | 97° |
| 2026-05-05 19:02 | 50.67229 | -2.62694 | 3051 ft | 109 kts | 97° |
| 2026-05-05 19:02 | 50.67013 | -2.61440 | 3051 ft | 109 kts | 97° |
| 2026-05-05 19:02 | 50.66801 | -2.60201 | 3005 ft | 111 kts | 98° |
| 2026-05-05 19:03 | 50.66586 | -2.58937 | 2888 ft | 110 kts | 97° |
| 2026-05-05 19:03 | 50.66374 | -2.57671 | 2768 ft | 109 kts | 97° |
| 2026-05-05 19:03 | 50.66165 | -2.56419 | 2657 ft | 109 kts | 97° |
| 2026-05-05 19:03 | 50.65965 | -2.55216 | 2548 ft | 108 kts | 97° |
| 2026-05-05 19:04 | 50.65770 | -2.54040 | 2443 ft | 108 kts | 97° |
| 2026-05-05 19:04 | 50.65579 | -2.52879 | 2344 ft | 108 kts | 97° |
| 2026-05-05 19:04 | 50.65387 | -2.51706 | 2229 ft | 108 kts | 97° |
| 2026-05-05 19:04 | 50.65201 | -2.50564 | 2131 ft | 107 kts | 97° |
| 2026-05-05 19:05 | 50.65017 | -2.49422 | 2067 ft | 107 kts | 97° |
| 2026-05-05 19:05 | 50.64833 | -2.48278 | 2062 ft | 107 kts | 97° |
| 2026-05-05 19:05 | 50.64647 | -2.47130 | 2057 ft | 108 kts | 97° |
| 2026-05-05 19:05 | 50.64462 | -2.45978 | 2059 ft | 108 kts | 97° |
| 2026-05-05 19:06 | 50.64277 | -2.44829 | 2059 ft | 108 kts | 96° |
| 2026-05-05 19:06 | 50.64112 | -2.43683 | 2063 ft | 107 kts | 91° |
| 2026-05-05 19:06 | 50.64028 | -2.42518 | 2062 ft | 107 kts | 89° |
| 2026-05-05 19:06 | 50.63952 | -2.41350 | 2062 ft | 107 kts | 89° |
| 2026-05-05 19:07 | 50.63909 | -2.40175 | 2056 ft | 106 kts | 84° |
| 2026-05-05 19:07 | 50.63899 | -2.39031 | 2049 ft | 105 kts | 84° |
| 2026-05-05 19:07 | 50.63891 | -2.37884 | 2052 ft | 104 kts | 84° |
| 2026-05-05 19:07 | 50.63882 | -2.36739 | 2052 ft | 104 kts | 84° |
| 2026-05-05 19:08 | 50.63873 | -2.35609 | 2048 ft | 104 kts | 84° |
| 2026-05-05 19:08 | 50.63864 | -2.34465 | 2048 ft | 103 kts | 84° |
| 2026-05-05 19:08 | 50.63853 | -2.33330 | 2054 ft | 103 kts | 85° |
| 2026-05-05 19:08 | 50.63842 | -2.32185 | 2063 ft | 104 kts | 84° |
| 2026-05-05 19:09 | 50.63833 | -2.31046 | 2069 ft | 105 kts | 84° |
| 2026-05-05 19:09 | 50.63823 | -2.29883 | 2067 ft | 106 kts | 85° |
| 2026-05-05 19:09 | 50.63815 | -2.28708 | 2067 ft | 106 kts | 84° |
| 2026-05-05 19:09 | 50.63806 | -2.27549 | 2062 ft | 107 kts | 85° |
| 2026-05-05 19:10 | 50.63799 | -2.26375 | 2063 ft | 106 kts | 84° |
| 2026-05-05 19:10 | 50.63791 | -2.25221 | 2061 ft | 106 kts | 84° |
| 2026-05-05 19:10 | 50.63781 | -2.24050 | 2064 ft | 106 kts | 84° |
| 2026-05-05 19:10 | 50.63772 | -2.22895 | 2058 ft | 106 kts | 84° |
| 2026-05-05 19:11 | 50.63762 | -2.21730 | 2062 ft | 106 kts | 84° |
| 2026-05-05 19:11 | 50.63752 | -2.20581 | 2060 ft | 106 kts | 84° |
| 2026-05-05 19:11 | 50.63742 | -2.19417 | 2063 ft | 106 kts | 84° |
| 2026-05-05 19:11 | 50.63732 | -2.18253 | 2064 ft | 106 kts | 84° |
| 2026-05-05 19:12 | 50.63723 | -2.17104 | 2063 ft | 106 kts | 85° |
| 2026-05-05 19:12 | 50.63714 | -2.15938 | 2064 ft | 106 kts | 85° |
| 2026-05-05 19:12 | 50.63705 | -2.14764 | 2073 ft | 106 kts | 84° |
| 2026-05-05 19:12 | 50.63696 | -2.13601 | 2081 ft | 108 kts | 84° |
| 2026-05-05 19:13 | 50.63686 | -2.12403 | 2079 ft | 109 kts | 85° |
| 2026-05-05 19:13 | 50.63679 | -2.11209 | 2067 ft | 109 kts | 84° |
| 2026-05-05 19:13 | 50.63670 | -2.10033 | 2056 ft | 107 kts | 84° |
| 2026-05-05 19:13 | 50.63662 | -2.08871 | 2049 ft | 105 kts | 84° |
| 2026-05-05 19:14 | 50.63651 | -2.07712 | 2056 ft | 104 kts | 84° |
| 2026-05-05 19:14 | 50.63641 | -2.06576 | 2060 ft | 105 kts | 84° |
| 2026-05-05 19:14 | 50.63631 | -2.05424 | 2063 ft | 105 kts | 84° |
| 2026-05-05 19:14 | 50.63619 | -2.04270 | 2056 ft | 105 kts | 84° |
| 2026-05-05 19:15 | 50.63609 | -2.03124 | 2053 ft | 105 kts | 84° |
| 2026-05-05 19:15 | 50.63600 | -2.01984 | 2054 ft | 104 kts | 83° |
| 2026-05-05 19:15 | 50.63797 | -2.00919 | 2074 ft | 100 kts | 57° |
| 2026-05-05 19:15 | 50.64207 | -2.00044 | 2068 ft | 100 kts | 43° |
| 2026-05-05 19:16 | 50.64719 | -1.99291 | 2063 ft | 100 kts | 41° |
| 2026-05-05 19:16 | 50.65232 | -1.98560 | 2065 ft | 100 kts | 40° |
| 2026-05-05 19:16 | 50.65752 | -1.97821 | 2065 ft | 100 kts | 40° |
| 2026-05-05 19:16 | 50.66266 | -1.97092 | 2063 ft | 100 kts | 40° |
| 2026-05-05 19:17 | 50.66839 | -1.96484 | 2060 ft | 99 kts | 24° |
| 2026-05-05 19:17 | 50.67502 | -1.96201 | 2062 ft | 99 kts | 13° |
| 2026-05-05 19:17 | 50.68189 | -1.96352 | 2062 ft | 103 kts | 346° |
| 2026-05-05 19:17 | 50.68855 | -1.96797 | 2059 ft | 101 kts | 344° |
| 2026-05-05 19:18 | 50.69491 | -1.97242 | 1995 ft | 99 kts | 342° |
| 2026-05-05 19:18 | 50.70132 | -1.97583 | 1927 ft | 97 kts | 349° |
| 2026-05-05 19:18 | 50.70789 | -1.97848 | 1846 ft | 96 kts | 353° |
| 2026-05-05 19:18 | 50.71446 | -1.98051 | 1794 ft | 94 kts | 354° |
| 2026-05-05 19:19 | 50.72089 | -1.98243 | 1734 ft | 94 kts | 356° |
| 2026-05-05 19:19 | 50.72738 | -1.98390 | 1658 ft | 95 kts | 358° |
| 2026-05-05 19:19 | 50.73398 | -1.98458 | 1575 ft | 95 kts | 1° |
| 2026-05-05 19:19 | 50.74058 | -1.98528 | 1517 ft | 94 kts | 0° |
| 2026-05-05 19:20 | 50.74720 | -1.98492 | 1448 ft | 93 kts | 15° |
| 2026-05-05 19:20 | 50.75270 | -1.98005 | 1437 ft | 89 kts | 36° |
| 2026-05-05 19:20 | 50.75784 | -1.97426 | 1375 ft | 91 kts | 46° |
| 2026-05-05 19:20 | 50.76065 | -1.96565 | 1372 ft | 90 kts | 66° |
| 2026-05-05 19:21 | 50.76202 | -1.95559 | 1311 ft | 94 kts | 76° |
| 2026-05-05 19:21 | 50.76298 | -1.94528 | 1272 ft | 95 kts | 78° |
| 2026-05-05 19:21 | 50.76399 | -1.93508 | 1230 ft | 95 kts | 75° |
| 2026-05-05 19:21 | 50.76545 | -1.92466 | 1143 ft | 98 kts | 72° |
| 2026-05-05 19:22 | 50.76731 | -1.91411 | 1066 ft | 96 kts | 70° |
| 2026-05-05 19:22 | 50.76920 | -1.90417 | 960 ft | 96 kts | 70° |
| 2026-05-05 19:22 | 50.77095 | -1.89420 | 765 ft | 92 kts | 74° |
| 2026-05-05 19:22 | 50.77273 | -1.88546 | 587 ft | 79 kts | 68° |
| 2026-05-05 19:23 | 50.77446 | -1.87721 | 354 ft | 79 kts | 73° |
| 2026-05-05 19:23 | 50.77569 | -1.86912 | 197 ft | 73 kts | 76° |
| 2026-05-05 19:23 | 50.77694 | -1.86159 | 155 ft | 68 kts | 73° |
| 2026-05-05 19:23 | 50.77815 | -1.85422 | 74 ft | 70 kts | 76° |
| 2026-05-05 19:24 | 50.77932 | -1.84694 | 36 ft | 63 kts | 76° |
| 2026-05-05 19:24 | 50.78021 | -1.84145 | 34 ft | 39 kts | 75° |
| 2026-05-05 19:24 | 50.78093 | -1.83918 | 34 ft | 15 kts | 327° |
| 2026-05-05 19:24 | 50.78179 | -1.83957 | 34 ft | 10 kts | 344° |
| 2026-05-05 19:25 | 50.78238 | -1.83979 | 34 ft | 7 kts | 350° |
| 2026-05-05 19:25 | 50.78290 | -1.83996 | 34 ft | 7 kts | 347° |
| 2026-05-05 19:25 | 50.78347 | -1.84018 | 34 ft | 9 kts | 346° |
| 2026-05-05 19:25 | 50.78414 | -1.84044 | 34 ft | 10 kts | 346° |
| 2026-05-05 19:26 | 50.78468 | -1.84003 | 34 ft | 11 kts | 94° |
| 2026-05-05 19:26 | 50.78450 | -1.83881 | 34 ft | 11 kts | 102° |
| 2026-05-05 19:26 | 50.78432 | -1.83760 | 34 ft | 10 kts | 104° |
| 2026-05-05 19:26 | 50.78415 | -1.83650 | 34 ft | 9 kts | 104° |
| 2026-05-05 19:27 | 50.78399 | -1.83551 | 35 ft | 8 kts | 104° |
| 2026-05-05 19:27 | 50.78377 | -1.83463 | 35 ft | 8 kts | 116° |
| 2026-05-05 19:27 | 50.78362 | -1.83367 | 36 ft | 9 kts | 95° |
| 2026-05-05 19:27 | 50.78365 | -1.83261 | 36 ft | 8 kts | 77° |
| 2026-05-05 19:28 | 50.78375 | -1.83191 | 36 ft | 5 kts | 69° |
| 2026-05-05 19:28 | 50.78396 | -1.83157 | 36 ft | 3 kts | 9° |
| 2026-05-05 19:28 | 50.78414 | -1.83167 | 36 ft | 1 kts | 329° |
| 2026-05-05 19:28 | 50.78424 | -1.83166 | 36 ft | 1 kts | 46° |
| 2026-05-05 19:29 | 50.78426 | -1.83162 | 36 ft | 0 kts | 57° |